• Join FlightAware (Why Join?)
  • Login
  • US Flag 
Gobble Gobble! 
12:54AM EST


 

Airport Tracker/Info


-or-


 

Live Flight TrackerFlight Track Log ✈ DAL6036 ✈ 28-Apr-2013 ✈ KRIC - KDTW

Flight Track Log - Related Links

Times and Time Zones

All times are in EDT time to prevent confusion due to time zone crossing. See the DAL6036 flight status page for this flight to view local times or setup timezone preferences in your user account.

Time Position Orientation Groundspeed Altitude Reporting Facility
EDT Latitude Longitude Course Direction KTS MPH feet Rate Location/Type
05:01PM 37.4489 -77.3733 250° West 183 211 3,500  Level Washington Center
05:02PM 37.4065 -77.6892 257° West  Level FlightAware Approximate
05:02PM 37.4372 -77.4567 260° West 204 235 5,900  Level Washington Center
05:03PM 37.3832 -77.8171 254° West  Level FlightAware Approximate
05:03PM 37.4233 -77.5400 258° West 233 268 8,200  Level Washington Center
05:04PM 37.3552 -77.9435 254° West  Level FlightAware Approximate
05:04PM 37.4114 -77.6261 260° West 249 287 10,400  Level Washington Center
05:05PM 37.3364 -78.0711 253° West  Level FlightAware Approximate
05:05PM 37.3994 -77.7197 261° West 266 306 11,700  Level Washington Center
05:06PM 37.3016 -78.1946 250° West  Level FlightAware Approximate
05:06PM 37.3828 -77.8239 259° West 281 323 12,800  Level Washington Center
05:07PM 37.3683 -77.9281 260° West 297 342 14,600 1,620 Climbing Washington Center
05:08PM 37.3497 -78.0242 256° West 315 362 16,100 1,380 Climbing Washington Center
05:09PM 37.3267 -78.1306 255° West 315 362 17,500 1,500 Climbing Washington Center
05:10PM 37.3033 -78.2472 256° West 315 362 19,100 1,680 Climbing Washington Center
05:11PM 37.2925 -78.3539 263° West 315 362 20,900 900 Climbing Washington Center
05:12PM 37.3278 -78.4569 293° West 309 356 21,000  Climbing Washington Center
05:13PM 37.3689 -78.5683 295° West 326 375 21,000 180 Level Washington Center
05:14PM 37.4036 -78.6717 293° West 346 398 21,400 840 Climbing Washington Center
05:15PM 37.4425 -78.7856 293° West 353 406 22,800 1,320 Climbing Washington Center
05:16PM 37.4831 -78.9000 294° West 358 412 24,200 1,380 Climbing Washington Center
05:17PM 37.5217 -79.0142 293° West 358 412 25,600 900 Climbing Washington Center
05:18PM 37.5639 -79.1392 293° West 358 412 26,000 180 Climbing Washington Center
05:19PM 37.6042 -79.2564 293° West 363 418 26,000 180 Level Washington Center
05:20PM 37.6442 -79.3764 293° West 363 418 26,400 480 Climbing Washington Center
05:21PM 37.6844 -79.4939 293° West 363 418 27,000 240 Climbing Washington Center
05:22PM 37.7222 -79.6061 293° West 373 429 27,000 540 Level Washington Center
05:23PM 37.7725 -79.7269 298° West 365 420 28,200 1,260 Climbing Washington Center
05:24PM 37.8467 -79.8100 319° Northwest 353 406 29,600 1,260 Climbing Washington Center
05:25PM 37.8997 -79.9050 305° West 347 399 30,700 1,020 Climbing Washington Center
05:26PM 37.9292 -80.0147 289° West 333 383 31,700 960 Climbing Washington Center
05:27PM 37.9567 -80.1139 289° West 331 381 32,700 960 Climbing Washington Center
05:28PM 37.9858 -80.2236 289° West 336 387 33,700 360 Climbing Washington Center
05:30PM 38.0589 -80.4872 289° West 327 376 34,000 60 Climbing Indianapolis Center
05:31PM 38.0878 -80.5961 289° West 326 375 34,000  Level Indianapolis Center
05:32PM 38.1333 -80.6972 300° West 340 391 34,000  Level Indianapolis Center
05:33PM 38.2186 -80.7664 327° Northwest 363 418 34,000  Level Indianapolis Center
05:34PM 38.3192 -80.8494 327° Northwest 360 414 34,000  Level Indianapolis Center
05:35PM 38.4047 -80.9178 328° Northwest 360 414 34,000  Level Indianapolis Center
05:36PM 38.4883 -80.9861 327° Northwest 359 413 34,000  Level Indianapolis Center
05:37PM 38.5719 -81.0556 327° Northwest 358 412 34,000  Level Indianapolis Center
05:38PM 38.6547 -81.1222 328° Northwest 354 407 34,000  Level Indianapolis Center
05:39PM 38.7375 -81.1914 327° Northwest 357 411 34,000  Level Indianapolis Center
05:40PM 38.8364 -81.2722 328° Northwest 356 410 34,000  Level Indianapolis Center
05:41PM 38.9317 -81.3267 336° Northwest 387 445 34,000  Level Indianapolis Center
05:43PM 39.0403 -81.3717 342° North 412 474 34,000  Level Indianapolis Center
05:44PM 39.1436 -81.4153 342° North 396 456 34,000  Level Indianapolis Center
05:45PM 39.2358 -81.4514 343° North 352 405 34,000 -240 Level Indianapolis Center
05:46PM 39.3439 -81.4978 342° North 342 394 33,600 -540 Descending Indianapolis Center
05:47PM 39.4353 -81.5367 342° North 346 398 33,000 -420 Descending Indianapolis Center
05:48PM 39.5167 -81.5867 335° Northwest 327 376 32,800 -840 Descending Indianapolis Center
05:49PM 39.5389 -81.6775 288° West 269 310 31,300 -1,440 Descending Indianapolis Center
05:50PM 39.5586 -81.7733 285° West 273 314 29,900 -1,140 Descending Indianapolis Center
05:51PM 39.5958 -81.8594 299° West 308 354 29,000 -480 Descending Indianapolis Center
05:52PM 39.6717 -81.9369 322° Northwest 345 397 29,000  Level Indianapolis Center
05:53PM 39.7642 -82.0297 322° Northwest 370 426 29,000 -60 Level Indianapolis Center
05:54PM 39.8494 -82.1225 320° Northwest 393 452 28,900 -540 Descending Indianapolis Center
05:55PM 39.9317 -82.2064 322° Northwest 376 433 27,900 -1,080 Descending Indianapolis Center
05:56PM 40.0522 -82.2086 359° North 387 445 26,700 -1,080 Descending Indianapolis Center
05:57PM 40.1561 -82.1664 17° North 389 448 25,700 -840 Descending Indianapolis Center
05:58PM 40.2600 -82.1256 17° North 389 448 25,000 -360 Descending Indianapolis Center
05:59PM 40.3622 -82.0861 16° North 382 440 25,000  Level Indianapolis Center
06:00PM 40.4647 -82.0450 17° North 383 441 25,000  Level Indianapolis Center
06:01PM 40.5333 -82.0200 15° North 399 459 25,000  Level Cleveland Center
06:02PM 40.6353 -82.0278 357° North 381 438 25,000  Level Cleveland Center
06:03PM 40.7331 -82.0464 352° North 365 420 25,000  Level Cleveland Center
06:04PM 40.8372 -82.0650 352° North 370 426 25,000  Level Cleveland Center
06:05PM 40.9244 -82.0836 351° North 370 426 25,000  Level Cleveland Center
06:06PM 41.0264 -82.1025 352° North 370 426 25,000 -60 Level Cleveland Center
06:07PM 41.1261 -82.1267 350° North 365 420 24,900 -540 Descending Cleveland Center
06:08PM 41.2083 -82.2117 322° Northwest 365 420 24,000 -1,140 Descending Cleveland Center
06:09PM 41.2967 -82.3078 321° Northwest 370 426 22,700 -1,680 Descending Cleveland Center
06:10PM 41.3744 -82.3928 321° Northwest 370 426 20,700 -2,100 Descending Cleveland Center
06:11PM 41.4481 -82.4753 320° Northwest 364 419 18,600 -2,100 Descending Cleveland Center
06:12PM 41.5219 -82.5550 321° Northwest 346 398 16,500 -2,040 Descending Cleveland Center
06:12PM 41.5547 -82.5922 320° Northwest 325 374 15,600 -2,040 Descending Cleveland Center
06:13PM 41.5914 -82.6294 323° Northwest 335 386 14,500 -2,040 Descending Cleveland Center
06:14PM 41.6547 -82.7036 319° Northwest 321 369 12,600 -1,260 Descending Cleveland Center
06:15PM 41.7181 -82.7725 321° Northwest 323 372 12,100 -300 Descending Cleveland Center
06:16PM 41.7956 -82.8669 318° Northwest 323 372 12,000  Descending Cleveland Center
06:17PM 41.8606 -82.9447 318° Northwest 354 407 12,100  Climbing Cleveland Center
06:18PM 41.9358 -83.0339 319° Northwest 357 411 12,100  Level Cleveland Center
06:19PM 42.0150 -83.1264 319° Northwest 356 410 12,100 -60 Level Cleveland Center
06:20PM 42.0739 -83.2017 317° Northwest 273 314 12,000 -600 Descending Cleveland Center
06:21PM 42.1461 -83.2297 344° North 245 282 11,000 -1,080 Descending Cleveland Center
06:22PM 42.2106 -83.2381 355° North 237 273 9,800 -1,380 Descending Cleveland Center
06:23PM 42.2681 -83.1928 30° Northeast 238 274 8,200 -1,740 Descending Cleveland Center
06:24PM 42.3358 -83.1422 29° Northeast 241 277 6,200 -1,080 Descending Cleveland Center
06:25PM 42.3908 -83.1022 28° Northeast 221 254 6,000 -120 Descending Cleveland Center
06:26PM 42.4461 -83.0536 33° Northeast 229 264 6,000 -60 Level Cleveland Center
06:27PM 42.4931 -83.0978 325° Northwest 220 253 5,900 -60 Descending Cleveland Center
06:28PM 42.4647 -83.1586 238° Southwest 189 217 5,900 -360 Level Cleveland Center
06:29PM 42.4225 -83.1850 205° Southwest 170 196 5,300 -840 Descending Cleveland Center
06:30PM 42.3822 -83.2142 208° Southwest 176 203 4,300 -960 Descending Cleveland Center
06:31PM 42.3356 -83.2517 211° Southwest 170 196 3,300 -900 Descending Cleveland Center